createdAt,value
2022-12-25T00:01:49.097Z,6.96
2022-12-25T00:05:41.856Z,6.93
2022-12-25T00:09:34.487Z,6.97
2022-12-25T00:13:27.667Z,7.04
2022-12-25T00:17:20.385Z,7.11
2022-12-25T00:21:13.821Z,7.20
2022-12-25T00:25:06.900Z,7.25
2022-12-25T00:28:59.702Z,7.20
2022-12-25T00:32:52.227Z,7.14
2022-12-25T00:36:44.914Z,7.11
2022-12-25T00:40:44.198Z,7.17
2022-12-25T00:44:37.037Z,7.10
2022-12-25T00:48:31.062Z,7.04
2022-12-25T00:52:23.785Z,6.93
2022-12-25T00:56:16.401Z,6.94
2022-12-25T01:00:10.520Z,6.86
2022-12-25T01:04:03.903Z,6.87
2022-12-25T01:07:56.696Z,6.96
2022-12-25T01:11:49.479Z,6.96
2022-12-25T01:15:42.259Z,6.94
2022-12-25T01:19:35.075Z,6.97
2022-12-25T01:23:27.789Z,6.89
2022-12-25T01:27:20.436Z,6.94
2022-12-25T01:31:17.024Z,6.99
2022-12-25T01:35:10.112Z,6.90
2022-12-25T01:39:02.956Z,6.84
2022-12-25T01:42:56.078Z,6.90
2022-12-25T01:46:48.598Z,6.90
2022-12-25T01:50:45.841Z,6.84
2022-12-25T01:54:40.520Z,6.91
2022-12-25T01:58:33.741Z,6.86
2022-12-25T02:02:27.978Z,6.86
2022-12-25T02:06:21.094Z,6.84
2022-12-25T02:10:14.371Z,6.86
2022-12-25T02:14:06.980Z,6.90
2022-12-25T02:18:26.444Z,6.94
2022-12-25T02:22:46.953Z,7.05
2022-12-25T02:26:39.540Z,7.08
2022-12-25T02:30:41.005Z,7.03
2022-12-25T02:34:36.319Z,7.10
2022-12-25T02:38:38.192Z,7.15
2022-12-25T02:43:17.333Z,7.01
2022-12-25T02:47:29.516Z,6.97
2022-12-25T02:51:44.826Z,6.94
2022-12-25T02:56:01.177Z,6.83
2022-12-25T03:00:14.815Z,6.79
2022-12-25T03:04:31.057Z,6.76
2022-12-25T03:08:29.442Z,6.71
2022-12-25T03:12:40.860Z,6.59
2022-12-25T03:16:51.848Z,6.57
2022-12-25T03:21:03.008Z,6.53
2022-12-25T03:25:14.151Z,6.53
2022-12-25T03:29:07.156Z,6.56
2022-12-25T03:33:36.730Z,6.46
2022-12-25T03:37:45.851Z,6.44
2022-12-25T03:42:06.520Z,6.38
2022-12-25T03:46:23.278Z,6.35
2022-12-25T03:50:40.564Z,6.31
2022-12-25T03:54:53.466Z,6.31
2022-12-25T03:59:31.268Z,6.21
2022-12-25T04:03:42.713Z,6.24
2022-12-25T04:07:54.380Z,6.25
2022-12-25T04:12:05.614Z,6.18
2022-12-25T04:16:16.947Z,6.18
2022-12-25T04:20:28.671Z,6.24
2022-12-25T04:24:39.921Z,6.11
2022-12-25T04:28:51.332Z,6.08
2022-12-25T04:33:02.632Z,6.03
2022-12-25T04:36:55.388Z,6.03
2022-12-25T04:40:47.934Z,5.98
2022-12-25T04:44:40.875Z,5.71
2022-12-25T04:48:35.740Z,5.70
2022-12-25T04:52:28.673Z,5.71
2022-12-25T04:56:21.835Z,5.66
2022-12-25T05:00:14.918Z,5.76
2022-12-25T05:04:08.013Z,5.86
2022-12-25T05:08:00.604Z,5.76
2022-12-25T05:11:53.280Z,5.77
2022-12-25T05:15:45.913Z,5.89
2022-12-25T05:19:38.693Z,5.89
2022-12-25T05:23:32.105Z,5.96
2022-12-25T05:27:24.770Z,5.93
2022-12-25T05:31:18.721Z,5.91
2022-12-25T05:35:11.300Z,5.93
2022-12-25T05:39:04.297Z,5.86
2022-12-25T05:42:57.044Z,5.93
2022-12-25T05:46:49.803Z,6.01
2022-12-25T05:50:43.781Z,5.98
2022-12-25T05:54:36.495Z,6.20
2022-12-25T05:58:30.273Z,6.17
2022-12-25T06:02:23.022Z,6.48
2022-12-25T06:06:16.096Z,6.38
2022-12-25T06:10:10.023Z,6.44
2022-12-25T06:14:02.788Z,6.25
2022-12-25T06:17:55.306Z,6.29
2022-12-25T06:21:48.548Z,6.22
2022-12-25T06:25:41.029Z,6.17
2022-12-25T06:29:33.982Z,6.00
2022-12-25T06:33:26.551Z,5.73
2022-12-25T06:37:19.948Z,5.63
2022-12-25T06:41:18.445Z,5.59
2022-12-25T06:45:11.330Z,5.45
2022-12-25T06:49:04.122Z,5.66
2022-12-25T06:52:57.157Z,5.59
2022-12-25T06:56:51.246Z,5.87
2022-12-25T07:00:43.857Z,5.85
2022-12-25T07:04:40.681Z,5.73
2022-12-25T07:08:33.921Z,5.89
2022-12-25T07:12:26.723Z,5.77
2022-12-25T07:16:20.397Z,5.89
2022-12-25T07:20:13.268Z,5.90
2022-12-25T07:24:06.458Z,6.04
2022-12-25T07:27:59.209Z,6.29
2022-12-25T07:31:52.212Z,6.35
2022-12-25T07:35:45.370Z,6.25
2022-12-25T07:39:38.014Z,6.35
2022-12-25T07:43:30.865Z,6.44
2022-12-25T07:47:23.633Z,6.61
2022-12-25T07:51:16.552Z,6.72
2022-12-25T07:55:10.384Z,6.86
2022-12-25T07:59:02.960Z,6.83
2022-12-25T08:02:56.944Z,6.73
2022-12-25T08:06:49.966Z,6.65
2022-12-25T08:10:47.769Z,6.72
2022-12-25T08:14:40.739Z,6.76
2022-12-25T08:18:34.006Z,6.84
2022-12-25T08:22:26.696Z,6.99
2022-12-25T08:26:22.193Z,6.90
2022-12-25T08:30:14.940Z,6.96
2022-12-25T08:34:07.636Z,7.32
2022-12-25T08:38:00.314Z,7.14
2022-12-25T08:41:53.293Z,7.08
2022-12-25T08:45:47.648Z,7.08
2022-12-25T08:49:40.359Z,7.01
2022-12-25T08:53:33.342Z,6.86
2022-12-25T08:57:26.028Z,6.94
2022-12-25T09:01:18.703Z,7.03
2022-12-25T09:05:12.388Z,7.11
2022-12-25T09:09:05.035Z,7.14
2022-12-25T09:12:58.274Z,7.20
2022-12-25T09:16:51.440Z,7.35
2022-12-25T09:20:44.390Z,7.42
2022-12-25T09:24:39.255Z,7.45
2022-12-25T09:28:32.492Z,7.56
2022-12-25T09:32:25.174Z,7.63
2022-12-25T09:36:21.416Z,7.75
2022-12-25T09:40:20.303Z,7.86
2022-12-25T09:44:20.120Z,7.98
2022-12-25T09:48:15.312Z,8.13
2022-12-25T09:52:17.570Z,8.30
2022-12-25T09:56:20.387Z,8.37
2022-12-25T10:00:18.664Z,8.59
2022-12-25T10:04:29.946Z,8.79
2022-12-25T10:09:00.565Z,8.94
2022-12-25T10:13:11.309Z,9.08
2022-12-25T10:17:40.303Z,9.28
2022-12-25T10:21:33.312Z,9.44
2022-12-25T10:25:26.675Z,9.51
2022-12-25T10:29:20.204Z,9.48
2022-12-25T10:33:17.184Z,9.41
2022-12-25T10:37:13.538Z,9.39
2022-12-25T10:41:29.845Z,9.45
2022-12-25T10:45:22.616Z,9.51
2022-12-25T10:49:17.434Z,9.52
2022-12-25T10:53:25.852Z,9.56
2022-12-25T10:57:21.871Z,9.62
2022-12-25T11:01:17.344Z,9.79
2022-12-25T11:05:33.389Z,9.78
2022-12-25T11:09:26.201Z,9.89
2022-12-25T11:13:25.538Z,9.82
2022-12-25T11:17:22.010Z,9.82
2022-12-25T11:21:37.016Z,9.87
2022-12-25T11:25:29.529Z,9.83
2022-12-25T11:29:24.718Z,9.85
2022-12-25T11:33:18.323Z,9.93
2022-12-25T11:37:40.839Z,10.02
2022-12-25T11:41:35.089Z,10.02
2022-12-25T11:45:36.032Z,10.03
2022-12-25T11:49:30.739Z,10.20
2022-12-25T11:53:37.575Z,10.30
2022-12-25T11:57:33.170Z,10.27
2022-12-25T12:01:47.255Z,10.22
2022-12-25T12:05:54.472Z,10.22
2022-12-25T12:10:11.546Z,10.30
2022-12-25T12:14:27.658Z,10.47
2022-12-25T12:18:22.125Z,10.44
2022-12-25T12:22:22.393Z,10.59
2022-12-25T12:26:24.028Z,10.68
2022-12-25T12:30:43.254Z,10.72
2022-12-25T12:34:43.070Z,10.88
2022-12-25T12:38:36.039Z,10.75
2022-12-25T12:42:36.379Z,10.64
2022-12-25T12:46:39.996Z,10.66
2022-12-25T12:50:32.800Z,10.86
2022-12-25T12:54:28.084Z,10.95
2022-12-25T12:58:31.030Z,11.07
2022-12-25T13:02:45.397Z,11.20
2022-12-25T13:06:44.262Z,11.17
2022-12-25T13:10:46.879Z,11.27
2022-12-25T13:14:46.192Z,11.47
2022-12-25T13:18:39.994Z,11.54
2022-12-25T13:22:35.279Z,11.24
2022-12-25T13:26:29.050Z,11.38
2022-12-25T13:30:22.277Z,11.40
2022-12-25T13:34:31.883Z,11.26
2022-12-25T13:38:27.504Z,11.30
2022-12-25T13:42:23.900Z,11.22
2022-12-25T13:46:16.770Z,11.37
2022-12-25T13:50:27.821Z,11.24
2022-12-25T13:54:20.612Z,11.40
2022-12-25T13:58:25.009Z,11.58
2022-12-25T14:02:31.308Z,11.52
2022-12-25T14:06:30.044Z,11.34
2022-12-25T14:10:26.361Z,11.37
2022-12-25T14:14:24.682Z,11.34
2022-12-25T14:18:19.569Z,11.24
2022-12-25T14:22:20.822Z,11.20
2022-12-25T14:26:27.730Z,11.02
2022-12-25T14:30:20.677Z,10.96
2022-12-25T14:34:24.265Z,11.04
2022-12-25T14:38:35.414Z,10.89
2022-12-25T14:42:30.655Z,10.82
2022-12-25T14:46:26.353Z,10.89
2022-12-25T14:50:53.946Z,11.03
2022-12-25T14:54:51.731Z,10.99
2022-12-25T14:58:50.625Z,10.91
2022-12-25T15:02:46.371Z,10.82
2022-12-25T15:06:51.915Z,10.95
2022-12-25T15:11:02.552Z,10.85
2022-12-25T15:14:55.974Z,10.88
2022-12-25T15:18:50.217Z,10.92
2022-12-25T15:23:10.307Z,10.86
2022-12-25T15:26:56.697Z,10.65
2022-12-25T15:30:50.216Z,10.66
2022-12-25T15:34:46.255Z,10.51
2022-12-25T15:38:39.295Z,10.59
2022-12-25T15:42:32.048Z,10.54
2022-12-25T15:46:25.073Z,10.80
2022-12-25T15:50:19.294Z,10.68
2022-12-25T15:54:12.499Z,10.51
2022-12-25T15:58:05.217Z,10.51
2022-12-25T16:02:00.643Z,10.54
2022-12-25T16:05:54.922Z,10.40
2022-12-25T16:09:47.346Z,10.40
2022-12-25T16:13:40.358Z,10.65
2022-12-25T16:17:32.929Z,10.36
2022-12-25T16:21:27.339Z,10.89
2022-12-25T16:25:20.570Z,10.52
2022-12-25T16:29:13.333Z,10.34
2022-12-25T16:33:06.578Z,10.38
2022-12-25T16:36:59.259Z,10.51
2022-12-25T16:40:56.972Z,10.38
2022-12-25T16:44:49.746Z,10.17
2022-12-25T16:48:42.828Z,10.04
2022-12-25T16:52:36.148Z,10.10
2022-12-25T16:56:30.874Z,10.13
2022-12-25T17:00:24.217Z,10.00
2022-12-25T17:04:17.056Z,9.86
2022-12-25T17:08:09.728Z,10.04
2022-12-25T17:12:02.358Z,10.25
2022-12-25T17:15:55.206Z,10.49
2022-12-25T17:19:47.704Z,10.54
2022-12-25T17:23:40.692Z,10.65
2022-12-25T17:27:33.285Z,10.93
2022-12-25T17:31:25.943Z,10.95
2022-12-25T17:35:20.852Z,10.68
2022-12-25T17:39:13.806Z,10.79
2022-12-25T17:43:06.702Z,10.75
2022-12-25T17:46:59.622Z,10.73
2022-12-25T17:50:52.280Z,10.76
2022-12-25T17:54:44.981Z,10.79
2022-12-25T17:58:38.700Z,10.64
2022-12-25T18:02:31.513Z,10.42
2022-12-25T18:06:25.833Z,10.72
2022-12-25T18:10:18.563Z,10.66
2022-12-25T18:14:16.001Z,10.68
2022-12-25T18:18:09.192Z,10.64
2022-12-25T18:22:01.889Z,10.38
2022-12-25T18:25:54.500Z,10.57
2022-12-25T18:29:47.151Z,10.51
2022-12-25T18:33:39.893Z,10.54
2022-12-25T18:37:39.421Z,10.34
2022-12-25T18:41:52.849Z,10.38
2022-12-25T18:45:45.861Z,10.61
2022-12-25T18:49:38.933Z,10.79
2022-12-25T18:53:32.816Z,10.64
2022-12-25T18:57:25.634Z,10.54
2022-12-25T19:01:22.134Z,10.65
2022-12-25T19:05:15.995Z,10.66
2022-12-25T19:09:12.479Z,10.47
2022-12-25T19:13:05.331Z,10.89
2022-12-25T19:16:58.827Z,10.96
2022-12-25T19:20:51.670Z,10.92
2022-12-25T19:24:44.913Z,10.83
2022-12-25T19:28:39.024Z,10.75
2022-12-25T19:32:32.082Z,10.82
2022-12-25T19:36:25.082Z,10.89
2022-12-25T19:40:18.556Z,10.99
2022-12-25T19:44:11.891Z,10.82
2022-12-25T19:48:05.076Z,10.89
2022-12-25T19:51:58.030Z,10.72
2022-12-25T19:55:55.087Z,10.71
2022-12-25T19:59:49.646Z,10.48
2022-12-25T20:03:46.358Z,10.37
2022-12-25T20:07:40.948Z,10.25
2022-12-25T20:11:35.221Z,10.42
2022-12-25T20:15:28.318Z,10.58
2022-12-25T20:19:21.493Z,10.51
2022-12-25T20:23:14.702Z,10.59
2022-12-25T20:27:07.600Z,10.88
2022-12-25T20:31:06.824Z,10.93
2022-12-25T20:34:59.571Z,10.79
2022-12-25T20:38:53.230Z,10.62
2022-12-25T20:42:46.464Z,10.44
2022-12-25T20:46:39.551Z,10.37
2022-12-25T20:50:32.432Z,10.49
2022-12-25T20:54:25.225Z,10.86
2022-12-25T20:58:18.479Z,11.02
2022-12-25T21:02:35.851Z,11.17
2022-12-25T21:06:26.969Z,11.27
2022-12-25T21:10:19.644Z,11.33
2022-12-25T21:14:12.396Z,11.12
2022-12-25T21:18:05.236Z,11.00
2022-12-25T21:21:58.327Z,11.04
2022-12-25T21:25:51.133Z,11.12
2022-12-25T21:29:43.937Z,11.04
2022-12-25T21:33:51.794Z,11.16
2022-12-25T21:37:44.551Z,11.06
2022-12-25T21:41:38.904Z,11.13
2022-12-25T21:45:33.384Z,10.95
2022-12-25T21:49:44.561Z,10.93
2022-12-25T21:53:37.291Z,11.02
2022-12-25T21:57:30.029Z,11.10
2022-12-25T22:01:23.068Z,11.06
2022-12-25T22:05:36.085Z,11.12
2022-12-25T22:09:30.446Z,11.03
2022-12-25T22:13:42.279Z,10.88
2022-12-25T22:17:59.304Z,10.97
2022-12-25T22:21:52.031Z,10.85
2022-12-25T22:25:44.587Z,10.93
2022-12-25T22:29:37.592Z,10.86
2022-12-25T22:33:31.203Z,10.79
2022-12-25T22:37:24.105Z,10.83
2022-12-25T22:41:16.823Z,10.80
2022-12-25T22:45:09.978Z,10.85
2022-12-25T22:49:02.772Z,10.89
2022-12-25T22:52:55.577Z,10.95
2022-12-25T22:56:51.421Z,10.89
2022-12-25T23:00:46.693Z,10.91
2022-12-25T23:04:39.631Z,10.52
2022-12-25T23:08:32.505Z,10.33
2022-12-25T23:12:43.511Z,10.16
2022-12-25T23:16:36.458Z,10.20
2022-12-25T23:20:47.676Z,9.92
2022-12-25T23:24:58.863Z,9.83
2022-12-25T23:29:10.283Z,9.56
2022-12-25T23:33:04.301Z,9.31
2022-12-25T23:36:56.950Z,9.10
2022-12-25T23:40:49.646Z,9.06
2022-12-25T23:44:42.213Z,9.11
2022-12-25T23:48:34.931Z,9.01
2022-12-25T23:52:27.626Z,8.76
2022-12-25T23:56:20.507Z,8.81
